sensor_id;sensor_type;location;lat;lon;timestamp;P1;durP1;ratioP1;P2;durP2;ratioP2
43801;SDS011;29429;51.074;13.764;2023-07-08T00:00:09;5.82;;;3.53;;
43801;SDS011;29429;51.074;13.764;2023-07-08T00:02:46;4.15;;;3.40;;
43801;SDS011;29429;51.074;13.764;2023-07-08T00:05:14;4.38;;;3.13;;
43801;SDS011;29429;51.074;13.764;2023-07-08T00:07:43;5.72;;;3.85;;
43801;SDS011;29429;51.074;13.764;2023-07-08T00:10:12;5.60;;;3.75;;
43801;SDS011;29429;51.074;13.764;2023-07-08T00:12:45;5.78;;;3.58;;
43801;SDS011;29429;51.074;13.764;2023-07-08T00:15:21;4.55;;;3.38;;
43801;SDS011;29429;51.074;13.764;2023-07-08T00:17:59;6.60;;;3.60;;
43801;SDS011;29429;51.074;13.764;2023-07-08T00:23:14;5.88;;;3.78;;
43801;SDS011;29429;51.074;13.764;2023-07-08T00:25:42;5.10;;;3.75;;
43801;SDS011;29429;51.074;13.764;2023-07-08T00:28:16;5.47;;;3.80;;
43801;SDS011;29429;51.074;13.764;2023-07-08T00:30:46;6.30;;;4.40;;
43801;SDS011;29429;51.074;13.764;2023-07-08T00:33:15;6.03;;;3.83;;
43801;SDS011;29429;51.074;13.764;2023-07-08T00:35:43;6.15;;;4.13;;
43801;SDS011;29429;51.074;13.764;2023-07-08T00:40:48;3.97;;;3.20;;
43801;SDS011;29429;51.074;13.764;2023-07-08T00:52:18;5.93;;;3.78;;
43801;SDS011;29429;51.074;13.764;2023-07-08T00:54:48;5.35;;;4.00;;
43801;SDS011;29429;51.074;13.764;2023-07-08T00:57:21;4.65;;;3.55;;
43801;SDS011;29429;51.074;13.764;2023-07-08T01:02:37;4.97;;;3.60;;
43801;SDS011;29429;51.074;13.764;2023-07-08T01:05:10;7.05;;;3.70;;
43801;SDS011;29429;51.074;13.764;2023-07-08T01:07:44;8.43;;;4.07;;
43801;SDS011;29429;51.074;13.764;2023-07-08T01:10:19;7.60;;;4.05;;
43801;SDS011;29429;51.074;13.764;2023-07-08T01:12:54;5.05;;;3.75;;
43801;SDS011;29429;51.074;13.764;2023-07-08T01:15:27;5.35;;;3.58;;
43801;SDS011;29429;51.074;13.764;2023-07-08T01:17:59;5.68;;;3.83;;
43801;SDS011;29429;51.074;13.764;2023-07-08T01:20:27;6.38;;;3.95;;
43801;SDS011;29429;51.074;13.764;2023-07-08T01:22:54;5.05;;;3.80;;
43801;SDS011;29429;51.074;13.764;2023-07-08T01:25:22;4.93;;;3.70;;
43801;SDS011;29429;51.074;13.764;2023-07-08T01:27:52;4.47;;;3.67;;
43801;SDS011;29429;51.074;13.764;2023-07-08T01:30:21;7.18;;;4.20;;
43801;SDS011;29429;51.074;13.764;2023-07-08T01:32:50;5.20;;;3.88;;
43801;SDS011;29429;51.074;13.764;2023-07-08T01:35:25;5.65;;;4.00;;
43801;SDS011;29429;51.074;13.764;2023-07-08T01:37:54;5.57;;;4.40;;
43801;SDS011;29429;51.074;13.764;2023-07-08T01:42:58;5.32;;;3.83;;
43801;SDS011;29429;51.074;13.764;2023-07-08T01:45:27;8.88;;;4.00;;
43801;SDS011;29429;51.074;13.764;2023-07-08T01:48:10;6.22;;;4.10;;
43801;SDS011;29429;51.074;13.764;2023-07-08T01:50:49;8.32;;;3.97;;
43801;SDS011;29429;51.074;13.764;2023-07-08T01:53:30;5.15;;;4.07;;
43801;SDS011;29429;51.074;13.764;2023-07-08T01:56:03;6.40;;;3.97;;
43801;SDS011;29429;51.074;13.764;2023-07-08T01:58:32;5.22;;;3.80;;
43801;SDS011;29429;51.074;13.764;2023-07-08T02:01:00;4.85;;;3.95;;
43801;SDS011;29429;51.074;13.764;2023-07-08T02:03:28;6.38;;;4.10;;
43801;SDS011;29429;51.074;13.764;2023-07-08T02:05:57;6.35;;;4.38;;
43801;SDS011;29429;51.074;13.764;2023-07-08T02:08:24;5.72;;;3.65;;
43801;SDS011;29429;51.074;13.764;2023-07-08T02:10:53;4.80;;;3.75;;
43801;SDS011;29429;51.074;13.764;2023-07-08T02:13:23;5.78;;;4.60;;
43801;SDS011;29429;51.074;13.764;2023-07-08T02:15:51;5.82;;;4.30;;
43801;SDS011;29429;51.074;13.764;2023-07-08T02:18:19;5.90;;;4.00;;
43801;SDS011;29429;51.074;13.764;2023-07-08T02:20:46;5.88;;;3.90;;
43801;SDS011;29429;51.074;13.764;2023-07-08T02:23:14;5.63;;;3.88;;
43801;SDS011;29429;51.074;13.764;2023-07-08T02:25:41;5.68;;;4.18;;
43801;SDS011;29429;51.074;13.764;2023-07-08T02:30:43;7.38;;;3.80;;
43801;SDS011;29429;51.074;13.764;2023-07-08T02:33:13;6.22;;;3.95;;
43801;SDS011;29429;51.074;13.764;2023-07-08T02:35:43;5.32;;;4.05;;
43801;SDS011;29429;51.074;13.764;2023-07-08T02:38:12;6.00;;;4.15;;
43801;SDS011;29429;51.074;13.764;2023-07-08T02:40:41;5.85;;;3.75;;
43801;SDS011;29429;51.074;13.764;2023-07-08T02:43:09;6.03;;;4.38;;
43801;SDS011;29429;51.074;13.764;2023-07-08T02:45:37;5.22;;;3.92;;
43801;SDS011;29429;51.074;13.764;2023-07-08T02:48:04;4.97;;;4.22;;
43801;SDS011;29429;51.074;13.764;2023-07-08T02:50:32;4.47;;;3.53;;
43801;SDS011;29429;51.074;13.764;2023-07-08T02:52:59;5.95;;;3.92;;
43801;SDS011;29429;51.074;13.764;2023-07-08T02:55:27;5.25;;;4.03;;
43801;SDS011;29429;51.074;13.764;2023-07-08T02:57:57;5.85;;;4.38;;
43801;SDS011;29429;51.074;13.764;2023-07-08T03:00:24;5.20;;;3.85;;
43801;SDS011;29429;51.074;13.764;2023-07-08T03:02:51;8.77;;;5.05;;
43801;SDS011;29429;51.074;13.764;2023-07-08T03:05:19;5.80;;;4.40;;
43801;SDS011;29429;51.074;13.764;2023-07-08T03:07:46;8.45;;;4.68;;
43801;SDS011;29429;51.074;13.764;2023-07-08T03:10:14;5.85;;;4.30;;
43801;SDS011;29429;51.074;13.764;2023-07-08T03:12:42;5.63;;;4.13;;
43801;SDS011;29429;51.074;13.764;2023-07-08T03:15:10;5.35;;;4.35;;
43801;SDS011;29429;51.074;13.764;2023-07-08T03:17:38;5.80;;;4.18;;
43801;SDS011;29429;51.074;13.764;2023-07-08T03:20:08;5.30;;;3.75;;
43801;SDS011;29429;51.074;13.764;2023-07-08T03:22:37;4.60;;;3.70;;
43801;SDS011;29429;51.074;13.764;2023-07-08T03:25:05;6.07;;;4.18;;
43801;SDS011;29429;51.074;13.764;2023-07-08T03:27:33;5.47;;;4.10;;
43801;SDS011;29429;51.074;13.764;2023-07-08T03:30:01;5.32;;;4.20;;
43801;SDS011;29429;51.074;13.764;2023-07-08T03:32:32;8.75;;;4.25;;
43801;SDS011;29429;51.074;13.764;2023-07-08T03:35:00;4.53;;;3.70;;
43801;SDS011;29429;51.074;13.764;2023-07-08T03:37:28;5.88;;;4.20;;
43801;SDS011;29429;51.074;13.764;2023-07-08T03:39:55;6.38;;;3.88;;
43801;SDS011;29429;51.074;13.764;2023-07-08T03:42:24;5.97;;;3.83;;
43801;SDS011;29429;51.074;13.764;2023-07-08T03:44:51;7.55;;;4.32;;
43801;SDS011;29429;51.074;13.764;2023-07-08T03:47:20;7.00;;;4.60;;
43801;SDS011;29429;51.074;13.764;2023-07-08T03:49:48;6.47;;;4.47;;
43801;SDS011;29429;51.074;13.764;2023-07-08T03:52:15;6.65;;;3.83;;
43801;SDS011;29429;51.074;13.764;2023-07-08T03:54:44;4.50;;;3.38;;
43801;SDS011;29429;51.074;13.764;2023-07-08T03:57:13;5.13;;;3.97;;
43801;SDS011;29429;51.074;13.764;2023-07-08T03:59:41;5.65;;;4.40;;
43801;SDS011;29429;51.074;13.764;2023-07-08T04:02:11;5.07;;;4.03;;
43801;SDS011;29429;51.074;13.764;2023-07-08T04:04:39;4.68;;;3.70;;
43801;SDS011;29429;51.074;13.764;2023-07-08T04:07:08;4.22;;;3.63;;
43801;SDS011;29429;51.074;13.764;2023-07-08T04:09:36;6.13;;;4.05;;
43801;SDS011;29429;51.074;13.764;2023-07-08T04:12:03;4.68;;;3.75;;
43801;SDS011;29429;51.074;13.764;2023-07-08T04:14:31;5.03;;;3.55;;
43801;SDS011;29429;51.074;13.764;2023-07-08T04:16:58;6.07;;;4.00;;
43801;SDS011;29429;51.074;13.764;2023-07-08T04:19:26;6.90;;;3.72;;
43801;SDS011;29429;51.074;13.764;2023-07-08T04:21:53;5.70;;;4.00;;
43801;SDS011;29429;51.074;13.764;2023-07-08T04:24:21;5.63;;;3.95;;
43801;SDS011;29429;51.074;13.764;2023-07-08T04:26:48;5.47;;;3.60;;
43801;SDS011;29429;51.074;13.764;2023-07-08T04:29:18;4.68;;;3.80;;
43801;SDS011;29429;51.074;13.764;2023-07-08T04:31:47;4.18;;;3.47;;
43801;SDS011;29429;51.074;13.764;2023-07-08T04:34:15;3.80;;;3.25;;
43801;SDS011;29429;51.074;13.764;2023-07-08T04:36:43;5.85;;;3.95;;
43801;SDS011;29429;51.074;13.764;2023-07-08T04:39:11;6.78;;;4.00;;
43801;SDS011;29429;51.074;13.764;2023-07-08T04:41:40;5.82;;;4.20;;
43801;SDS011;29429;51.074;13.764;2023-07-08T04:44:10;5.22;;;3.75;;
43801;SDS011;29429;51.074;13.764;2023-07-08T04:46:45;6.03;;;4.13;;
43801;SDS011;29429;51.074;13.764;2023-07-08T04:49:17;4.78;;;3.85;;
43801;SDS011;29429;51.074;13.764;2023-07-08T04:51:45;4.57;;;3.58;;
43801;SDS011;29429;51.074;13.764;2023-07-08T04:54:13;4.20;;;3.33;;
43801;SDS011;29429;51.074;13.764;2023-07-08T04:56:42;3.88;;;3.15;;
43801;SDS011;29429;51.074;13.764;2023-07-08T04:59:14;4.00;;;3.58;;
43801;SDS011;29429;51.074;13.764;2023-07-08T05:01:45;4.88;;;3.70;;
43801;SDS011;29429;51.074;13.764;2023-07-08T05:04:16;4.32;;;3.38;;
43801;SDS011;29429;51.074;13.764;2023-07-08T05:06:45;4.78;;;3.47;;
43801;SDS011;29429;51.074;13.764;2023-07-08T05:09:13;4.95;;;3.53;;
43801;SDS011;29429;51.074;13.764;2023-07-08T05:11:43;3.88;;;3.10;;
43801;SDS011;29429;51.074;13.764;2023-07-08T05:14:11;4.10;;;3.13;;
43801;SDS011;29429;51.074;13.764;2023-07-08T05:16:43;4.90;;;3.30;;
43801;SDS011;29429;51.074;13.764;2023-07-08T05:19:11;4.55;;;3.10;;
43801;SDS011;29429;51.074;13.764;2023-07-08T05:21:38;3.70;;;2.83;;
43801;SDS011;29429;51.074;13.764;2023-07-08T05:24:06;3.55;;;2.70;;
43801;SDS011;29429;51.074;13.764;2023-07-08T05:26:34;4.22;;;3.00;;
43801;SDS011;29429;51.074;13.764;2023-07-08T05:29:01;4.40;;;3.00;;
43801;SDS011;29429;51.074;13.764;2023-07-08T05:31:29;4.05;;;3.03;;
43801;SDS011;29429;51.074;13.764;2023-07-08T05:34:13;4.50;;;3.40;;
43801;SDS011;29429;51.074;13.764;2023-07-08T05:36:41;5.03;;;3.17;;
43801;SDS011;29429;51.074;13.764;2023-07-08T05:39:09;3.85;;;3.10;;
43801;SDS011;29429;51.074;13.764;2023-07-08T05:41:37;6.18;;;3.40;;
43801;SDS011;29429;51.074;13.764;2023-07-08T05:44:04;3.80;;;3.15;;
43801;SDS011;29429;51.074;13.764;2023-07-08T05:46:32;4.38;;;2.78;;
43801;SDS011;29429;51.074;13.764;2023-07-08T05:48:59;4.22;;;2.70;;
43801;SDS011;29429;51.074;13.764;2023-07-08T05:51:27;3.80;;;3.08;;
43801;SDS011;29429;51.074;13.764;2023-07-08T05:53:55;5.50;;;2.83;;
43801;SDS011;29429;51.074;13.764;2023-07-08T05:56:22;4.20;;;2.70;;
43801;SDS011;29429;51.074;13.764;2023-07-08T05:58:49;4.82;;;2.92;;
43801;SDS011;29429;51.074;13.764;2023-07-08T06:01:17;2.95;;;2.60;;
43801;SDS011;29429;51.074;13.764;2023-07-08T06:03:44;4.60;;;2.80;;
43801;SDS011;29429;51.074;13.764;2023-07-08T06:06:12;3.47;;;2.83;;
43801;SDS011;29429;51.074;13.764;2023-07-08T06:08:39;4.35;;;3.08;;
43801;SDS011;29429;51.074;13.764;2023-07-08T06:11:06;3.00;;;2.30;;
43801;SDS011;29429;51.074;13.764;2023-07-08T06:13:34;3.70;;;2.58;;
43801;SDS011;29429;51.074;13.764;2023-07-08T06:16:01;3.63;;;2.50;;
43801;SDS011;29429;51.074;13.764;2023-07-08T06:18:29;4.47;;;2.85;;
43801;SDS011;29429;51.074;13.764;2023-07-08T06:20:57;3.20;;;2.17;;
43801;SDS011;29429;51.074;13.764;2023-07-08T06:23:25;3.45;;;2.45;;
43801;SDS011;29429;51.074;13.764;2023-07-08T06:25:54;5.32;;;3.05;;
43801;SDS011;29429;51.074;13.764;2023-07-08T06:28:21;3.97;;;2.72;;
43801;SDS011;29429;51.074;13.764;2023-07-08T06:30:49;3.92;;;2.90;;
43801;SDS011;29429;51.074;13.764;2023-07-08T06:33:17;4.43;;;2.70;;
43801;SDS011;29429;51.074;13.764;2023-07-08T06:35:44;3.65;;;2.40;;
43801;SDS011;29429;51.074;13.764;2023-07-08T06:38:12;4.28;;;2.47;;
43801;SDS011;29429;51.074;13.764;2023-07-08T06:40:39;4.22;;;2.85;;
43801;SDS011;29429;51.074;13.764;2023-07-08T06:43:07;3.58;;;2.30;;
43801;SDS011;29429;51.074;13.764;2023-07-08T06:45:47;3.40;;;2.70;;
43801;SDS011;29429;51.074;13.764;2023-07-08T06:48:14;4.68;;;3.58;;
43801;SDS011;29429;51.074;13.764;2023-07-08T06:50:45;3.80;;;3.03;;
43801;SDS011;29429;51.074;13.764;2023-07-08T06:53:14;4.22;;;2.72;;
43801;SDS011;29429;51.074;13.764;2023-07-08T06:55:43;3.08;;;2.17;;
43801;SDS011;29429;51.074;13.764;2023-07-08T06:58:12;3.22;;;2.53;;
43801;SDS011;29429;51.074;13.764;2023-07-08T07:00:43;4.72;;;2.95;;
43801;SDS011;29429;51.074;13.764;2023-07-08T07:03:11;3.05;;;2.50;;
43801;SDS011;29429;51.074;13.764;2023-07-08T07:05:39;4.07;;;2.75;;
43801;SDS011;29429;51.074;13.764;2023-07-08T07:08:07;7.53;;;2.95;;
43801;SDS011;29429;51.074;13.764;2023-07-08T07:10:35;4.65;;;3.00;;
43801;SDS011;29429;51.074;13.764;2023-07-08T07:13:03;3.58;;;2.53;;
43801;SDS011;29429;51.074;13.764;2023-07-08T07:15:30;4.07;;;2.90;;
43801;SDS011;29429;51.074;13.764;2023-07-08T07:17:58;4.55;;;2.90;;
43801;SDS011;29429;51.074;13.764;2023-07-08T07:20:26;3.22;;;2.38;;
43801;SDS011;29429;51.074;13.764;2023-07-08T07:22:54;3.17;;;2.40;;
43801;SDS011;29429;51.074;13.764;2023-07-08T07:25:22;3.65;;;2.78;;
43801;SDS011;29429;51.074;13.764;2023-07-08T07:27:50;3.25;;;2.53;;
43801;SDS011;29429;51.074;13.764;2023-07-08T07:30:17;3.95;;;2.60;;
43801;SDS011;29429;51.074;13.764;2023-07-08T07:32:45;2.85;;;2.53;;
43801;SDS011;29429;51.074;13.764;2023-07-08T07:35:14;4.75;;;2.95;;
43801;SDS011;29429;51.074;13.764;2023-07-08T07:37:42;6.13;;;3.03;;
43801;SDS011;29429;51.074;13.764;2023-07-08T07:40:10;3.85;;;2.92;;
43801;SDS011;29429;51.074;13.764;2023-07-08T07:42:41;3.83;;;2.78;;
43801;SDS011;29429;51.074;13.764;2023-07-08T07:45:10;4.57;;;2.60;;
43801;SDS011;29429;51.074;13.764;2023-07-08T07:47:38;3.92;;;2.90;;
43801;SDS011;29429;51.074;13.764;2023-07-08T07:50:06;3.97;;;2.70;;
43801;SDS011;29429;51.074;13.764;2023-07-08T07:52:34;4.38;;;3.03;;
43801;SDS011;29429;51.074;13.764;2023-07-08T07:55:03;3.50;;;2.60;;
43801;SDS011;29429;51.074;13.764;2023-07-08T07:57:30;4.20;;;3.03;;
43801;SDS011;29429;51.074;13.764;2023-07-08T07:59:58;3.47;;;2.85;;
43801;SDS011;29429;51.074;13.764;2023-07-08T08:02:26;5.10;;;2.90;;
43801;SDS011;29429;51.074;13.764;2023-07-08T08:04:53;4.18;;;3.15;;
43801;SDS011;29429;51.074;13.764;2023-07-08T08:07:20;4.60;;;2.85;;
43801;SDS011;29429;51.074;13.764;2023-07-08T08:09:48;3.08;;;2.55;;
43801;SDS011;29429;51.074;13.764;2023-07-08T08:12:15;4.43;;;3.05;;
43801;SDS011;29429;51.074;13.764;2023-07-08T08:14:43;3.30;;;2.60;;
43801;SDS011;29429;51.074;13.764;2023-07-08T08:17:10;3.72;;;2.55;;
43801;SDS011;29429;51.074;13.764;2023-07-08T08:19:38;4.00;;;2.78;;
43801;SDS011;29429;51.074;13.764;2023-07-08T08:22:05;4.47;;;3.17;;
43801;SDS011;29429;51.074;13.764;2023-07-08T08:24:33;3.95;;;2.70;;
43801;SDS011;29429;51.074;13.764;2023-07-08T08:27:00;4.47;;;2.80;;
43801;SDS011;29429;51.074;13.764;2023-07-08T08:29:28;4.30;;;2.83;;
43801;SDS011;29429;51.074;13.764;2023-07-08T08:31:55;4.47;;;3.08;;
43801;SDS011;29429;51.074;13.764;2023-07-08T08:34:23;3.42;;;2.45;;
43801;SDS011;29429;51.074;13.764;2023-07-08T08:36:50;3.28;;;2.78;;
43801;SDS011;29429;51.074;13.764;2023-07-08T08:39:21;5.63;;;2.75;;
43801;SDS011;29429;51.074;13.764;2023-07-08T08:41:49;3.47;;;2.67;;
43801;SDS011;29429;51.074;13.764;2023-07-08T08:44:26;3.97;;;2.63;;
43801;SDS011;29429;51.074;13.764;2023-07-08T08:52:42;3.65;;;3.00;;
43801;SDS011;29429;51.074;13.764;2023-07-08T08:55:13;4.25;;;3.28;;
43801;SDS011;29429;51.074;13.764;2023-07-08T08:57:48;4.28;;;3.20;;
43801;SDS011;29429;51.074;13.764;2023-07-08T09:00:42;3.83;;;3.13;;
43801;SDS011;29429;51.074;13.764;2023-07-08T09:03:20;5.90;;;3.22;;
43801;SDS011;29429;51.074;13.764;2023-07-08T09:06:00;4.50;;;3.28;;
43801;SDS011;29429;51.074;13.764;2023-07-08T09:08:35;4.90;;;3.22;;
43801;SDS011;29429;51.074;13.764;2023-07-08T09:13:50;4.10;;;3.03;;
43801;SDS011;29429;51.074;13.764;2023-07-08T09:16:39;4.85;;;2.90;;
43801;SDS011;29429;51.074;13.764;2023-07-08T09:24:29;4.18;;;3.28;;
43801;SDS011;29429;51.074;13.764;2023-07-08T09:27:05;4.22;;;3.00;;
43801;SDS011;29429;51.074;13.764;2023-07-08T09:29:33;4.03;;;3.10;;
43801;SDS011;29429;51.074;13.764;2023-07-08T09:32:01;5.35;;;3.03;;
43801;SDS011;29429;51.074;13.764;2023-07-08T09:34:46;5.82;;;3.00;;
43801;SDS011;29429;51.074;13.764;2023-07-08T09:37:29;4.97;;;2.83;;
43801;SDS011;29429;51.074;13.764;2023-07-08T09:39:59;3.63;;;2.58;;
43801;SDS011;29429;51.074;13.764;2023-07-08T09:42:31;6.50;;;3.42;;
43801;SDS011;29429;51.074;13.764;2023-07-08T09:45:01;2.95;;;2.47;;
43801;SDS011;29429;51.074;13.764;2023-07-08T09:47:37;2.92;;;2.22;;
43801;SDS011;29429;51.074;13.764;2023-07-08T09:50:26;4.00;;;2.45;;
43801;SDS011;29429;51.074;13.764;2023-07-08T09:52:56;3.00;;;2.60;;
43801;SDS011;29429;51.074;13.764;2023-07-08T09:55:26;2.72;;;2.20;;
43801;SDS011;29429;51.074;13.764;2023-07-08T09:57:55;3.58;;;2.35;;
43801;SDS011;29429;51.074;13.764;2023-07-08T10:00:32;4.97;;;2.88;;
43801;SDS011;29429;51.074;13.764;2023-07-08T10:03:26;3.42;;;2.78;;
43801;SDS011;29429;51.074;13.764;2023-07-08T10:05:54;2.92;;;2.25;;
43801;SDS011;29429;51.074;13.764;2023-07-08T10:08:42;2.90;;;2.28;;
43801;SDS011;29429;51.074;13.764;2023-07-08T10:14:22;3.05;;;2.50;;
43801;SDS011;29429;51.074;13.764;2023-07-08T10:16:59;4.53;;;2.65;;
43801;SDS011;29429;51.074;13.764;2023-07-08T10:19:30;3.13;;;2.63;;
43801;SDS011;29429;51.074;13.764;2023-07-08T10:27:54;2.83;;;2.53;;
43801;SDS011;29429;51.074;13.764;2023-07-08T10:45:25;2.53;;;2.33;;
43801;SDS011;29429;51.074;13.764;2023-07-08T10:56:28;4.43;;;2.70;;
43801;SDS011;29429;51.074;13.764;2023-07-08T11:10:18;3.42;;;2.53;;
43801;SDS011;29429;51.074;13.764;2023-07-08T11:13:03;3.80;;;2.42;;
43801;SDS011;29429;51.074;13.764;2023-07-08T11:15:42;4.25;;;2.50;;
43801;SDS011;29429;51.074;13.764;2023-07-08T11:21:12;3.55;;;2.47;;
43801;SDS011;29429;51.074;13.764;2023-07-08T11:23:43;3.28;;;2.72;;
43801;SDS011;29429;51.074;13.764;2023-07-08T11:27:02;3.35;;;2.78;;
43801;SDS011;29429;51.074;13.764;2023-07-08T11:29:18;3.72;;;2.75;;
43801;SDS011;29429;51.074;13.764;2023-07-08T11:31:50;3.22;;;2.75;;
43801;SDS011;29429;51.074;13.764;2023-07-08T11:34:20;3.33;;;2.67;;
43801;SDS011;29429;51.074;13.764;2023-07-08T11:36:48;4.00;;;2.70;;
43801;SDS011;29429;51.074;13.764;2023-07-08T11:42:13;3.37;;;2.73;;
43801;SDS011;29429;51.074;13.764;2023-07-08T11:44:53;3.28;;;2.50;;
43801;SDS011;29429;51.074;13.764;2023-07-08T11:47:31;4.15;;;2.42;;
43801;SDS011;29429;51.074;13.764;2023-07-08T11:52:58;4.28;;;2.78;;
43801;SDS011;29429;51.074;13.764;2023-07-08T11:58:08;3.30;;;2.85;;
43801;SDS011;29429;51.074;13.764;2023-07-08T12:01:17;2.92;;;2.50;;
43801;SDS011;29429;51.074;13.764;2023-07-08T12:03:59;2.97;;;2.60;;
43801;SDS011;29429;51.074;13.764;2023-07-08T12:06:42;2.97;;;2.63;;
43801;SDS011;29429;51.074;13.764;2023-07-08T12:09:26;2.72;;;2.38;;
43801;SDS011;29429;51.074;13.764;2023-07-08T12:12:00;3.65;;;2.60;;
43801;SDS011;29429;51.074;13.764;2023-07-08T12:14:31;2.78;;;2.30;;
43801;SDS011;29429;51.074;13.764;2023-07-08T12:16:59;4.05;;;2.40;;
43801;SDS011;29429;51.074;13.764;2023-07-08T12:19:27;2.85;;;2.42;;
43801;SDS011;29429;51.074;13.764;2023-07-08T12:22:01;3.85;;;2.70;;
43801;SDS011;29429;51.074;13.764;2023-07-08T12:24:30;4.30;;;2.60;;
43801;SDS011;29429;51.074;13.764;2023-07-08T12:26:58;3.15;;;2.65;;
43801;SDS011;29429;51.074;13.764;2023-07-08T12:29:25;2.85;;;2.42;;
43801;SDS011;29429;51.074;13.764;2023-07-08T12:31:54;2.60;;;2.33;;
43801;SDS011;29429;51.074;13.764;2023-07-08T12:34:22;4.47;;;2.72;;
43801;SDS011;29429;51.074;13.764;2023-07-08T12:36:52;2.95;;;2.45;;
43801;SDS011;29429;51.074;13.764;2023-07-08T12:39:20;3.80;;;2.40;;
43801;SDS011;29429;51.074;13.764;2023-07-08T12:41:47;3.05;;;2.45;;
43801;SDS011;29429;51.074;13.764;2023-07-08T12:44:22;3.20;;;2.70;;
43801;SDS011;29429;51.074;13.764;2023-07-08T12:46:52;3.10;;;2.38;;
43801;SDS011;29429;51.074;13.764;2023-07-08T12:49:21;3.28;;;2.55;;
43801;SDS011;29429;51.074;13.764;2023-07-08T12:51:53;2.75;;;2.35;;
43801;SDS011;29429;51.074;13.764;2023-07-08T12:54:21;3.58;;;2.35;;
43801;SDS011;29429;51.074;13.764;2023-07-08T12:56:48;3.67;;;2.60;;
43801;SDS011;29429;51.074;13.764;2023-07-08T12:59:18;2.95;;;2.60;;
43801;SDS011;29429;51.074;13.764;2023-07-08T13:01:47;3.88;;;2.45;;
43801;SDS011;29429;51.074;13.764;2023-07-08T13:04:16;2.92;;;2.20;;
43801;SDS011;29429;51.074;13.764;2023-07-08T13:06:45;3.80;;;3.13;;
43801;SDS011;29429;51.074;13.764;2023-07-08T13:09:48;2.95;;;2.60;;
43801;SDS011;29429;51.074;13.764;2023-07-08T13:12:13;3.65;;;2.63;;
43801;SDS011;29429;51.074;13.764;2023-07-08T13:14:48;2.85;;;2.40;;
43801;SDS011;29429;51.074;13.764;2023-07-08T13:17:17;2.75;;;2.33;;
43801;SDS011;29429;51.074;13.764;2023-07-08T13:19:45;3.38;;;2.58;;
43801;SDS011;29429;51.074;13.764;2023-07-08T13:22:18;3.05;;;2.30;;
43801;SDS011;29429;51.074;13.764;2023-07-08T13:24:48;3.08;;;2.78;;
43801;SDS011;29429;51.074;13.764;2023-07-08T13:27:25;4.15;;;2.53;;
43801;SDS011;29429;51.074;13.764;2023-07-08T13:29:54;3.28;;;2.67;;
43801;SDS011;29429;51.074;13.764;2023-07-08T13:32:32;3.67;;;2.70;;
43801;SDS011;29429;51.074;13.764;2023-07-08T13:34:59;2.83;;;2.50;;
43801;SDS011;29429;51.074;13.764;2023-07-08T13:37:27;3.00;;;2.65;;
43801;SDS011;29429;51.074;13.764;2023-07-08T13:39:57;2.97;;;2.45;;
43801;SDS011;29429;51.074;13.764;2023-07-08T13:42:25;3.05;;;2.50;;
43801;SDS011;29429;51.074;13.764;2023-07-08T13:44:52;3.45;;;2.60;;
43801;SDS011;29429;51.074;13.764;2023-07-08T13:47:21;12.00;;;3.47;;
43801;SDS011;29429;51.074;13.764;2023-07-08T13:50:04;3.42;;;2.78;;
43801;SDS011;29429;51.074;13.764;2023-07-08T13:52:44;3.75;;;2.88;;
43801;SDS011;29429;51.074;13.764;2023-07-08T13:55:16;4.53;;;2.80;;
43801;SDS011;29429;51.074;13.764;2023-07-08T13:57:55;3.13;;;2.50;;
43801;SDS011;29429;51.074;13.764;2023-07-08T14:00:26;2.92;;;2.60;;
43801;SDS011;29429;51.074;13.764;2023-07-08T14:02:57;3.03;;;2.72;;
43801;SDS011;29429;51.074;13.764;2023-07-08T14:05:24;3.55;;;2.78;;
43801;SDS011;29429;51.074;13.764;2023-07-08T14:07:52;3.60;;;2.70;;
43801;SDS011;29429;51.074;13.764;2023-07-08T14:10:20;3.83;;;2.65;;
43801;SDS011;29429;51.074;13.764;2023-07-08T14:12:48;3.00;;;2.60;;
43801;SDS011;29429;51.074;13.764;2023-07-08T14:15:15;3.38;;;2.92;;
43801;SDS011;29429;51.074;13.764;2023-07-08T14:17:42;2.50;;;2.30;;
43801;SDS011;29429;51.074;13.764;2023-07-08T14:20:15;3.00;;;2.70;;
43801;SDS011;29429;51.074;13.764;2023-07-08T14:22:44;4.32;;;2.85;;
43801;SDS011;29429;51.074;13.764;2023-07-08T14:25:13;4.32;;;3.00;;
43801;SDS011;29429;51.074;13.764;2023-07-08T14:27:41;3.50;;;3.05;;
43801;SDS011;29429;51.074;13.764;2023-07-08T14:30:09;3.22;;;2.67;;
43801;SDS011;29429;51.074;13.764;2023-07-08T14:32:37;5.40;;;3.42;;
43801;SDS011;29429;51.074;13.764;2023-07-08T14:38:12;2.92;;;2.50;;
43801;SDS011;29429;51.074;13.764;2023-07-08T14:40:40;3.10;;;2.65;;
43801;SDS011;29429;51.074;13.764;2023-07-08T14:43:20;3.88;;;2.72;;
43801;SDS011;29429;51.074;13.764;2023-07-08T14:45:56;3.58;;;2.72;;
43801;SDS011;29429;51.074;13.764;2023-07-08T14:48:27;4.93;;;2.92;;
43801;SDS011;29429;51.074;13.764;2023-07-08T14:50:56;3.13;;;2.70;;
43801;SDS011;29429;51.074;13.764;2023-07-08T14:53:24;3.28;;;2.80;;
43801;SDS011;29429;51.074;13.764;2023-07-08T14:55:52;2.78;;;2.55;;
43801;SDS011;29429;51.074;13.764;2023-07-08T14:58:22;2.88;;;2.67;;
43801;SDS011;29429;51.074;13.764;2023-07-08T15:00:57;2.72;;;2.42;;
43801;SDS011;29429;51.074;13.764;2023-07-08T15:03:29;3.20;;;2.65;;
43801;SDS011;29429;51.074;13.764;2023-07-08T15:05:57;3.33;;;2.72;;
43801;SDS011;29429;51.074;13.764;2023-07-08T15:08:25;3.53;;;2.58;;
43801;SDS011;29429;51.074;13.764;2023-07-08T15:10:54;2.95;;;2.63;;
43801;SDS011;29429;51.074;13.764;2023-07-08T15:13:22;3.85;;;2.33;;
43801;SDS011;29429;51.074;13.764;2023-07-08T15:15:55;4.47;;;2.50;;
43801;SDS011;29429;51.074;13.764;2023-07-08T15:18:23;3.50;;;2.45;;
43801;SDS011;29429;51.074;13.764;2023-07-08T15:20:51;3.38;;;2.60;;
43801;SDS011;29429;51.074;13.764;2023-07-08T15:23:19;4.25;;;2.65;;
43801;SDS011;29429;51.074;13.764;2023-07-08T15:25:46;3.60;;;2.67;;
43801;SDS011;29429;51.074;13.764;2023-07-08T15:28:19;3.00;;;2.65;;
43801;SDS011;29429;51.074;13.764;2023-07-08T15:31:18;3.35;;;2.33;;
43801;SDS011;29429;51.074;13.764;2023-07-08T15:33:51;4.18;;;2.60;;
43801;SDS011;29429;51.074;13.764;2023-07-08T15:36:19;5.32;;;2.40;;
43801;SDS011;29429;51.074;13.764;2023-07-08T15:38:46;3.92;;;2.80;;
43801;SDS011;29429;51.074;13.764;2023-07-08T15:41:18;3.00;;;2.33;;
43801;SDS011;29429;51.074;13.764;2023-07-08T15:43:48;2.72;;;2.53;;
43801;SDS011;29429;51.074;13.764;2023-07-08T15:46:18;3.80;;;2.40;;
43801;SDS011;29429;51.074;13.764;2023-07-08T15:48:48;2.83;;;2.53;;
43801;SDS011;29429;51.074;13.764;2023-07-08T15:51:15;2.97;;;2.58;;
43801;SDS011;29429;51.074;13.764;2023-07-08T15:53:44;3.70;;;2.70;;
43801;SDS011;29429;51.074;13.764;2023-07-08T15:56:12;2.85;;;2.50;;
43801;SDS011;29429;51.074;13.764;2023-07-08T15:58:43;2.80;;;2.53;;
43801;SDS011;29429;51.074;13.764;2023-07-08T16:01:14;2.92;;;2.63;;
43801;SDS011;29429;51.074;13.764;2023-07-08T16:03:46;2.83;;;2.53;;
43801;SDS011;29429;51.074;13.764;2023-07-08T16:06:15;3.65;;;3.10;;
43801;SDS011;29429;51.074;13.764;2023-07-08T16:08:44;3.28;;;2.20;;
43801;SDS011;29429;51.074;13.764;2023-07-08T16:11:16;3.42;;;2.33;;
43801;SDS011;29429;51.074;13.764;2023-07-08T16:13:52;3.15;;;2.45;;
43801;SDS011;29429;51.074;13.764;2023-07-08T16:16:19;2.85;;;2.28;;
43801;SDS011;29429;51.074;13.764;2023-07-08T16:18:47;2.47;;;2.00;;
43801;SDS011;29429;51.074;13.764;2023-07-08T16:21:15;2.85;;;2.15;;
43801;SDS011;29429;51.074;13.764;2023-07-08T16:23:42;4.05;;;2.30;;
43801;SDS011;29429;51.074;13.764;2023-07-08T16:26:11;2.78;;;2.35;;